createdAt,value
2017-12-19T00:04:01.726Z,13.20
2017-12-19T00:06:30.766Z,12.80
2017-12-19T00:09:03.059Z,13.05
2017-12-19T00:11:45.979Z,13.33
2017-12-19T00:14:15.026Z,11.20
2017-12-19T00:16:51.253Z,13.98
2017-12-19T00:19:20.316Z,13.80
2017-12-19T00:21:53.562Z,11.47
2017-12-19T00:24:35.162Z,13.48
2017-12-19T00:27:08.515Z,13.80
2017-12-19T00:29:37.563Z,11.43
2017-12-19T00:32:09.490Z,13.27
2017-12-19T00:34:38.760Z,13.45
2017-12-19T00:37:07.775Z,10.03
2017-12-19T00:42:13.646Z,12.00
2017-12-19T00:44:42.686Z,12.82
2017-12-19T00:49:52.878Z,11.27
2017-12-19T00:52:31.918Z,10.30
2017-12-19T00:55:01.016Z,11.60
2017-12-19T00:57:40.931Z,11.75
2017-12-19T01:00:09.974Z,8.37
2017-12-19T01:05:21.957Z,12.18
2017-12-19T01:07:51.008Z,10.00
2017-12-19T01:12:55.324Z,12.10
2017-12-19T01:17:59.550Z,12.07
2017-12-19T01:20:28.594Z,9.70
2017-12-19T01:22:57.667Z,11.75
2017-12-19T01:25:37.176Z,9.83
2017-12-19T01:28:06.249Z,11.70
2017-12-19T01:30:35.281Z,12.55
2017-12-19T01:33:04.338Z,12.18
2017-12-19T01:35:33.382Z,10.07
2017-12-19T01:38:02.463Z,11.27
2017-12-19T01:40:32.478Z,11.50
2017-12-19T01:43:01.515Z,8.87
2017-12-19T01:45:48.290Z,11.70
2017-12-19T01:50:53.486Z,11.90
2017-12-19T01:53:26.324Z,10.60
2017-12-19T01:55:55.378Z,11.70
2017-12-19T01:58:38.842Z,11.00
2017-12-19T02:01:07.886Z,8.97
2017-12-19T02:03:40.726Z,11.65
2017-12-19T02:06:09.817Z,8.00
2017-12-19T02:08:38.854Z,10.10
2017-12-19T02:11:07.954Z,9.60
2017-12-19T02:13:50.030Z,10.10
2017-12-19T02:18:56.240Z,10.40
2017-12-19T02:24:03.485Z,10.43
2017-12-19T02:26:32.521Z,9.73
2017-12-19T02:29:01.562Z,10.48
2017-12-19T02:31:36.301Z,11.82
2017-12-19T02:34:05.354Z,8.90
2017-12-19T02:36:42.211Z,11.12
2017-12-19T02:39:22.970Z,9.77
2017-12-19T02:41:52.023Z,11.50
2017-12-19T02:44:21.116Z,11.43
2017-12-19T02:46:50.169Z,10.43
2017-12-19T02:49:22.361Z,12.30
2017-12-19T02:51:51.422Z,10.17
2017-12-19T02:54:20.554Z,12.20
2017-12-19T03:02:01.226Z,13.18
2017-12-19T03:04:30.265Z,10.93
2017-12-19T03:06:59.301Z,13.57
2017-12-19T03:09:30.322Z,12.20
2017-12-19T03:11:59.386Z,13.20
2017-12-19T03:14:28.406Z,11.10
2017-12-19T03:16:57.450Z,12.68
2017-12-19T03:19:26.511Z,13.40
2017-12-19T03:21:55.561Z,13.18
2017-12-19T03:24:24.615Z,11.30
2017-12-19T03:26:54.607Z,13.13
2017-12-19T03:29:23.635Z,11.37
2017-12-19T03:31:52.702Z,13.35
2017-12-19T03:34:23.674Z,13.25
2017-12-19T03:36:52.725Z,13.50
2017-12-19T03:42:04.585Z,13.40
2017-12-19T03:44:35.586Z,15.18
2017-12-19T03:47:04.706Z,12.43
2017-12-19T03:49:33.747Z,13.73
2017-12-19T03:52:02.819Z,13.33
2017-12-19T03:54:31.863Z,13.60
2017-12-19T03:57:00.956Z,12.87
2017-12-19T03:59:30.910Z,13.90
2017-12-19T04:02:00.092Z,12.40
2017-12-19T04:04:31.035Z,13.95
2017-12-19T04:07:00.101Z,14.48
2017-12-19T04:09:30.064Z,14.15
2017-12-19T04:11:59.109Z,12.87
2017-12-19T04:17:03.336Z,14.20
2017-12-19T04:22:35.570Z,13.45
2017-12-19T04:25:04.618Z,11.70
2017-12-19T04:27:34.698Z,13.57
2017-12-19T04:30:03.757Z,12.47
2017-12-19T04:32:40.134Z,13.13
2017-12-19T04:35:09.178Z,13.40
2017-12-19T04:37:40.211Z,11.30
2017-12-19T04:40:09.257Z,12.90
2017-12-19T04:42:49.567Z,13.77
2017-12-19T04:47:56.506Z,13.93
2017-12-19T04:50:29.638Z,12.40
2017-12-19T04:52:58.718Z,14.40
2017-12-19T04:55:49.314Z,12.53
2017-12-19T04:58:26.364Z,14.97
2017-12-19T05:00:55.408Z,14.65
2017-12-19T05:03:24.437Z,11.70
2017-12-19T05:05:54.438Z,14.18
2017-12-19T05:08:23.457Z,13.60
2017-12-19T05:10:52.498Z,14.82
2017-12-19T05:13:21.537Z,15.45
2017-12-19T05:15:50.591Z,13.43
2017-12-19T05:18:19.638Z,14.70
2017-12-19T05:20:48.686Z,13.63
2017-12-19T05:23:21.231Z,15.43
2017-12-19T05:25:50.261Z,16.45
2017-12-19T05:28:22.970Z,12.40
2017-12-19T05:30:52.018Z,15.20
2017-12-19T05:33:22.006Z,15.18
2017-12-19T05:35:51.062Z,15.93
2017-12-19T05:38:20.114Z,15.18
2017-12-19T05:40:49.170Z,12.57
2017-12-19T05:43:18.211Z,15.30
2017-12-19T05:45:48.222Z,16.23
2017-12-19T05:48:21.707Z,13.37
2017-12-19T05:50:51.024Z,15.32
2017-12-19T05:53:30.690Z,13.20
2017-12-19T05:56:00.650Z,15.70
2017-12-19T06:01:04.958Z,16.55
2017-12-19T06:08:50.435Z,15.70
2017-12-19T06:11:45.411Z,12.67
2017-12-19T06:14:14.442Z,15.30
2017-12-19T06:16:43.550Z,15.40
2017-12-19T06:19:16.221Z,13.60
2017-12-19T06:26:58.725Z,15.23
2017-12-19T06:29:31.551Z,13.67
2017-12-19T06:32:00.603Z,14.70
2017-12-19T06:37:08.807Z,15.55
2017-12-19T06:42:30.506Z,16.37
2017-12-19T06:44:59.565Z,17.40
2017-12-19T06:47:28.630Z,17.33
2017-12-19T06:49:57.678Z,14.97
2017-12-19T06:52:27.754Z,17.85
2017-12-19T06:54:56.846Z,17.20
2017-12-19T06:57:29.319Z,14.80
2017-12-19T06:59:58.392Z,18.20
2017-12-19T07:02:37.259Z,16.40
2017-12-19T07:05:06.325Z,18.23
2017-12-19T07:07:47.196Z,19.05
2017-12-19T07:12:57.604Z,17.87
2017-12-19T07:15:39.428Z,15.80
2017-12-19T07:18:08.494Z,19.37
2017-12-19T07:23:14.666Z,20.30
2017-12-19T07:25:51.559Z,15.93
2017-12-19T07:28:21.679Z,19.33
2017-12-19T07:30:50.764Z,17.33
2017-12-19T07:33:25.043Z,19.58
2017-12-19T07:35:58.139Z,21.57
2017-12-19T07:38:28.210Z,22.23
2017-12-19T07:40:57.310Z,21.90
2017-12-19T07:43:26.359Z,19.33
2017-12-19T07:48:33.303Z,24.50
2017-12-19T07:51:02.291Z,26.02
2017-12-19T07:53:31.321Z,21.50
2017-12-19T07:56:04.118Z,25.20
2017-12-19T07:58:33.163Z,27.37
2017-12-19T08:01:15.221Z,22.47
2017-12-19T08:03:44.302Z,27.50
2017-12-19T08:06:24.297Z,28.62
2017-12-19T08:08:57.229Z,23.47
2017-12-19T08:11:26.293Z,26.92
2017-12-19T08:14:00.798Z,23.40
2017-12-19T08:16:33.790Z,29.35
2017-12-19T08:19:06.282Z,26.50
2017-12-19T08:21:39.086Z,28.75
2017-12-19T08:24:11.840Z,28.50
2017-12-19T08:26:40.884Z,23.50
2017-12-19T08:31:45.104Z,27.42
2017-12-19T08:34:31.926Z,23.23
2017-12-19T08:37:02.000Z,27.87
2017-12-19T08:39:31.054Z,22.87
2017-12-19T08:42:31.815Z,28.45
2017-12-19T08:47:41.055Z,29.50
2017-12-19T08:50:10.087Z,29.45
2017-12-19T08:52:39.138Z,23.90
2017-12-19T08:55:10.078Z,30.08
2017-12-19T08:57:39.135Z,23.83
2017-12-19T09:00:10.123Z,30.17
2017-12-19T09:02:39.168Z,25.30
2017-12-19T09:05:08.223Z,30.85
2017-12-19T09:07:37.262Z,27.33
2017-12-19T09:12:43.163Z,30.88
2017-12-19T09:15:15.914Z,31.83
2017-12-19T09:17:45.012Z,25.20
2017-12-19T09:20:34.975Z,30.27
2017-12-19T09:25:47.156Z,30.08
2017-12-19T09:28:19.947Z,25.70
2017-12-19T09:30:50.023Z,30.70
2017-12-19T09:36:16.971Z,28.67
2017-12-19T09:38:46.021Z,24.03
2017-12-19T09:41:25.239Z,29.12
2017-12-19T09:46:32.705Z,30.25
2017-12-19T09:51:40.073Z,31.62
2017-12-19T09:54:10.054Z,28.53
2017-12-19T09:56:39.098Z,29.83
2017-12-19T09:59:10.054Z,23.00
2017-12-19T10:01:39.103Z,28.90
2017-12-19T10:04:10.050Z,29.00
2017-12-19T10:06:39.080Z,25.80
2017-12-19T10:09:24.818Z,28.60
2017-12-19T10:12:04.897Z,23.27
2017-12-19T10:14:33.942Z,26.65
2017-12-19T10:17:06.856Z,22.13
2017-12-19T10:19:36.822Z,27.77
2017-12-19T10:22:05.866Z,23.70
2017-12-19T10:24:34.917Z,21.93
2017-12-19T10:27:16.732Z,25.35
2017-12-19T10:29:45.769Z,21.67
2017-12-19T10:32:19.654Z,26.87
2017-12-19T10:34:48.682Z,24.47
2017-12-19T10:37:31.232Z,20.70
2017-12-19T10:40:31.596Z,20.50
2017-12-19T10:45:35.849Z,24.48
2017-12-19T10:48:26.581Z,23.27
2017-12-19T10:54:04.972Z,30.60
2017-12-19T10:56:35.396Z,22.43
2017-12-19T10:59:05.382Z,25.30
2017-12-19T11:01:35.515Z,23.17
2017-12-19T11:04:15.952Z,21.50
2017-12-19T11:06:45.003Z,20.67
2017-12-19T11:09:17.901Z,25.88
2017-12-19T11:11:46.938Z,20.20
2017-12-19T11:14:19.327Z,18.60
2017-12-19T11:16:48.369Z,20.23
2017-12-19T11:22:14.986Z,23.45
2017-12-19T11:24:44.024Z,21.00
2017-12-19T11:29:56.268Z,23.73
2017-12-19T11:32:31.747Z,20.97
2017-12-19T11:35:07.937Z,19.10
2017-12-19T11:37:37.873Z,20.13
2017-12-19T11:40:10.462Z,23.02
2017-12-19T11:42:40.450Z,20.17
2017-12-19T11:47:47.955Z,24.10
2017-12-19T11:50:31.808Z,25.42
2017-12-19T11:53:00.866Z,19.57
2017-12-19T11:55:31.079Z,19.30
2017-12-19T11:58:00.094Z,17.57
2017-12-19T12:00:31.079Z,18.30
2017-12-19T12:03:22.098Z,17.63
2017-12-19T12:06:14.322Z,18.23
2017-12-19T12:08:48.803Z,18.03
2017-12-19T12:11:32.166Z,19.00
2017-12-19T12:14:05.087Z,18.47
2017-12-19T12:16:34.133Z,18.63
2017-12-19T12:19:11.579Z,15.90
2017-12-19T12:21:40.634Z,14.97
2017-12-19T12:24:27.251Z,17.20
2017-12-19T12:26:56.323Z,17.03
2017-12-19T12:29:38.090Z,18.12
2017-12-19T12:32:29.374Z,14.23
2017-12-19T12:35:00.319Z,14.77
2017-12-19T12:37:31.277Z,15.93
2017-12-19T12:40:04.632Z,16.10
2017-12-19T12:42:34.695Z,17.47
2017-12-19T12:45:28.632Z,15.70
2017-12-19T12:50:34.682Z,22.23
2017-12-19T12:53:05.082Z,22.40
2017-12-19T12:55:34.144Z,22.80
2017-12-19T12:58:03.173Z,18.10
2017-12-19T13:00:33.151Z,16.93
2017-12-19T13:03:02.238Z,15.93
2017-12-19T13:05:36.460Z,14.30
2017-12-19T13:08:05.810Z,12.13
2017-12-19T13:10:38.634Z,10.67
2017-12-19T13:13:07.678Z,10.35
2017-12-19T13:15:44.336Z,9.13
2017-12-19T13:18:13.409Z,10.33
2017-12-19T13:20:42.445Z,10.90
2017-12-19T13:23:11.528Z,12.43
2017-12-19T13:25:42.455Z,10.20
2017-12-19T13:28:11.500Z,12.50
2017-12-19T13:30:43.627Z,11.20
2017-12-19T13:33:12.696Z,12.65
2017-12-19T13:35:53.491Z,12.45
2017-12-19T13:38:26.320Z,12.00
2017-12-19T13:40:56.253Z,13.88
2017-12-19T13:46:03.464Z,13.50
2017-12-19T13:48:33.430Z,11.43
2017-12-19T13:51:02.477Z,15.45
2017-12-19T13:56:09.750Z,16.12
2017-12-19T13:58:42.638Z,15.73
2017-12-19T14:01:11.678Z,15.00
2017-12-19T14:03:44.484Z,16.37
2017-12-19T14:06:13.530Z,21.40
2017-12-19T14:08:53.569Z,18.60
2017-12-19T14:11:26.381Z,17.80
2017-12-19T14:14:18.310Z,20.95
2017-12-19T14:19:30.061Z,22.10
2017-12-19T14:22:01.067Z,17.90
2017-12-19T14:24:30.119Z,22.65
2017-12-19T14:27:01.119Z,20.47
2017-12-19T14:29:45.138Z,23.00
2017-12-19T14:32:14.207Z,19.63
2017-12-19T14:35:04.210Z,23.17
2017-12-19T14:40:09.435Z,22.95
2017-12-19T14:42:38.475Z,20.10
2017-12-19T14:45:10.996Z,23.40
2017-12-19T14:47:40.038Z,20.63
2017-12-19T14:52:46.250Z,26.20
2017-12-19T14:55:16.166Z,20.90
2017-12-19T15:00:22.678Z,25.80
2017-12-19T15:02:55.521Z,25.45
2017-12-19T15:05:24.558Z,20.90
2017-12-19T15:07:57.160Z,26.35
2017-12-19T15:10:26.198Z,19.87
2017-12-19T15:16:08.664Z,27.60
2017-12-19T15:18:39.642Z,21.70
2017-12-19T15:21:09.602Z,26.60
2017-12-19T15:23:38.654Z,26.77
2017-12-19T15:26:08.632Z,21.40
2017-12-19T15:28:41.462Z,24.70
2017-12-19T15:34:06.547Z,25.00
2017-12-19T15:36:48.535Z,20.63
2017-12-19T15:39:17.561Z,19.40
2017-12-19T15:41:54.606Z,24.65
2017-12-19T15:47:02.952Z,25.83
2017-12-19T15:49:33.665Z,26.33
2017-12-19T15:52:32.763Z,27.00
2017-12-19T15:55:01.810Z,20.63
2017-12-19T15:57:32.794Z,25.85
2017-12-19T16:00:05.170Z,28.30
2017-12-19T16:02:34.225Z,20.90
2017-12-19T16:05:11.403Z,25.40
2017-12-19T16:07:40.454Z,21.77
2017-12-19T16:10:13.091Z,26.37
2017-12-19T16:12:44.131Z,28.05
2017-12-19T16:15:18.719Z,24.20
2017-12-19T16:17:47.754Z,22.50
2017-12-19T16:20:18.813Z,28.58
2017-12-19T16:22:48.923Z,28.70
2017-12-19T16:25:18.934Z,25.20
2017-12-19T16:27:48.891Z,28.62
2017-12-19T16:30:25.747Z,23.90
2017-12-19T16:32:54.883Z,29.00
2017-12-19T16:35:27.253Z,24.67
2017-12-19T16:38:01.155Z,30.10
2017-12-19T16:40:32.229Z,25.70
2017-12-19T16:43:32.390Z,30.35
2017-12-19T16:46:25.816Z,27.77
2017-12-19T16:48:54.870Z,36.60
2017-12-19T16:51:27.729Z,27.80
2017-12-19T16:54:00.494Z,34.65
2017-12-19T16:59:31.897Z,32.10
2017-12-19T17:02:19.802Z,27.97
2017-12-19T17:04:49.832Z,37.53
2017-12-19T17:10:09.978Z,32.90
2017-12-19T17:12:39.003Z,27.63
2017-12-19T17:15:08.074Z,33.58
2017-12-19T17:17:50.124Z,34.75
2017-12-19T17:20:32.339Z,36.38
2017-12-19T17:23:01.483Z,31.23
2017-12-19T17:25:54.626Z,36.22
2017-12-19T17:30:59.879Z,35.63
2017-12-19T17:36:08.279Z,35.60
2017-12-19T17:44:09.187Z,34.50
2017-12-19T17:49:15.361Z,32.90
2017-12-19T17:54:21.499Z,33.65
2017-12-19T17:56:54.274Z,34.22
2017-12-19T18:02:02.512Z,33.55
2017-12-19T18:04:53.394Z,34.50
2017-12-19T18:07:31.575Z,29.63
2017-12-19T18:10:00.642Z,33.05
2017-12-19T18:15:12.075Z,35.42
2017-12-19T18:17:41.109Z,35.55
2017-12-19T18:20:10.142Z,36.45
2017-12-19T18:22:39.203Z,29.80
2017-12-19T18:25:08.308Z,34.58
2017-12-19T18:30:22.547Z,34.72
2017-12-19T18:32:55.366Z,28.60
2017-12-19T18:35:28.184Z,34.50
2017-12-19T18:38:01.035Z,27.93
2017-12-19T18:40:30.094Z,34.30
2017-12-19T18:43:03.660Z,29.07
2017-12-19T18:45:32.702Z,35.13
2017-12-19T18:50:50.944Z,35.08
2017-12-19T18:53:20.660Z,27.40
2017-12-19T18:56:00.631Z,31.87
2017-12-19T18:58:29.691Z,27.50
2017-12-19T19:01:02.453Z,31.90
2017-12-19T19:03:31.495Z,32.65
2017-12-19T19:06:10.186Z,27.43
2017-12-19T19:11:20.184Z,33.13
2017-12-19T19:13:52.642Z,29.83
2017-12-19T19:16:21.713Z,32.45
2017-12-19T19:19:18.190Z,32.63
2017-12-19T19:21:47.238Z,26.20
2017-12-19T19:24:19.760Z,31.27
2017-12-19T19:26:48.811Z,26.03
2017-12-19T19:29:21.578Z,30.73
2017-12-19T19:34:28.854Z,29.65
2017-12-19T19:36:57.962Z,30.17
2017-12-19T19:39:26.958Z,29.52
2017-12-19T19:44:37.182Z,30.77
2017-12-19T19:49:45.404Z,29.83
2017-12-19T19:52:18.259Z,23.97
2017-12-19T19:54:47.388Z,30.92
2017-12-19T19:57:29.018Z,24.60
2017-12-19T19:59:58.098Z,31.20
2017-12-19T20:02:37.983Z,31.33
2017-12-19T20:07:44.190Z,30.60
2017-12-19T20:12:51.454Z,30.73
2017-12-19T20:15:22.410Z,30.30
2017-12-19T20:17:51.453Z,25.57
2017-12-19T20:20:22.465Z,30.67
2017-12-19T20:22:51.686Z,23.30
2017-12-19T20:25:20.768Z,28.87
2017-12-19T20:27:49.811Z,25.00
2017-12-19T20:30:18.882Z,28.98
2017-12-19T20:35:23.240Z,28.85
2017-12-19T20:37:52.306Z,28.62
2017-12-19T20:42:58.610Z,30.42
2017-12-19T20:45:30.642Z,23.53
2017-12-19T20:48:00.903Z,28.17
2017-12-19T20:50:29.982Z,29.80
2017-12-19T20:52:59.022Z,31.58
2017-12-19T20:55:28.136Z,24.33
2017-12-19T20:57:57.196Z,30.23
2017-12-19T21:00:26.344Z,33.05
2017-12-19T21:02:56.536Z,34.28
2017-12-19T21:05:25.596Z,34.03
2017-12-19T21:07:54.675Z,27.60
2017-12-19T21:10:23.751Z,37.67
2017-12-19T21:12:53.090Z,25.87
2017-12-19T21:15:22.130Z,33.65
2017-12-19T21:18:04.909Z,32.37
2017-12-19T21:20:33.929Z,30.58
2017-12-19T21:23:03.396Z,27.42
2017-12-19T21:25:32.507Z,23.90
2017-12-19T21:28:05.211Z,25.10
2017-12-19T21:30:39.912Z,21.00
2017-12-19T21:33:14.308Z,26.23
2017-12-19T21:35:47.338Z,28.45
2017-12-19T21:38:16.382Z,20.93
2017-12-19T21:40:55.901Z,22.87
2017-12-19T21:43:24.959Z,17.40
2017-12-19T21:45:56.008Z,19.33
2017-12-19T21:48:28.699Z,16.93
2017-12-19T21:50:58.671Z,19.60
2017-12-19T21:53:28.624Z,20.70
2017-12-19T21:56:04.906Z,20.58
2017-12-19T21:58:34.918Z,17.43
2017-12-19T22:01:07.736Z,20.50
2017-12-19T22:03:40.598Z,21.90
2017-12-19T22:06:09.679Z,19.57
2017-12-19T22:08:40.615Z,21.30
2017-12-19T22:11:09.659Z,16.83
2017-12-19T22:16:15.543Z,20.90
2017-12-19T22:18:45.489Z,22.50
2017-12-19T22:21:14.535Z,18.80
2017-12-19T22:23:43.579Z,22.25
2017-12-19T22:26:12.617Z,22.90
2017-12-19T22:28:41.698Z,19.47
2017-12-19T22:31:10.770Z,23.48
2017-12-19T22:33:39.843Z,23.92
2017-12-19T22:36:17.157Z,25.98
2017-12-19T22:38:46.193Z,18.67
2017-12-19T22:41:19.071Z,21.83
2017-12-19T22:46:39.464Z,22.93
2017-12-19T22:49:21.491Z,23.23
2017-12-19T22:51:51.391Z,24.60
2017-12-19T22:56:56.629Z,25.00
2017-12-19T22:59:25.683Z,25.17
2017-12-19T23:01:54.723Z,19.23
2017-12-19T23:04:23.773Z,23.50
2017-12-19T23:06:52.822Z,19.03
2017-12-19T23:11:59.176Z,23.70
2017-12-19T23:14:30.180Z,25.12
2017-12-19T23:16:59.254Z,27.50
2017-12-19T23:19:28.290Z,25.67
2017-12-19T23:21:57.322Z,23.95
2017-12-19T23:24:34.981Z,23.02
2017-12-19T23:29:41.206Z,24.12
2017-12-19T23:32:10.253Z,24.52
2017-12-19T23:34:40.298Z,20.70
2017-12-19T23:37:09.378Z,23.50
2017-12-19T23:39:38.541Z,19.17
2017-12-19T23:42:12.694Z,22.42
2017-12-19T23:44:41.734Z,23.60
2017-12-19T23:47:10.847Z,18.80
2017-12-19T23:49:39.906Z,21.80
2017-12-19T23:52:09.930Z,21.65
2017-12-19T23:54:40.976Z,18.70
2017-12-19T23:57:15.902Z,24.10
2017-12-19T23:59:50.056Z,23.50
